Terminal Aerodrome Forecast
Issued by NWS

Home | Current Version | Previous Version | Text Only | Print | Product List | Glossary On
Versions: 1 2 3 4 5 6 7 8 9 10 11 12 13 14 15
000
FTUS43 KJKL 300457 AAC
TAFSME
TAF AMD
KSME 300457Z 3005/3024 24012G20KT P6SM VCSH OVC045 WS020/25050KT
     FM300700 24008KT 4SM -SHRA BR SCT030 OVC050
     FM300900 26008KT P6SM BKN050
     FM301300 28008KT P6SM FEW060 SCT200=

USA.gov is the U.S. government's official web portal to all federal, state and local government web resources and services.